Time;durP1;ratioP1;P1;durP2;ratioP2;P2;SDS_P1;SDS_P2;PMS_P1;PMS_P2;Temp;Humidity;BMP_temperature;BMP_pressure;BME280_temperature;BME280_humidity;BME280_pressure;Samples;Min_cycle;Max_cycle;Signal;HPM_P1;HPM_P2
2023/05/26 00:00:25;;;;;;;9.07;4.65;;;;;;;;;;5046966;28;20045;-78
2023/05/26 00:02:50;;;;;;;12.80;5.70;;;;;;;;;;5048977;28;20384;-78
2023/05/26 00:05:16;;;;;;;9.25;4.63;;;;;;;;;;5051363;28;20040;-78
2023/05/26 00:07:42;;;;;;;8.05;4.43;;;;;;;;;;5053984;28;20033;-78
2023/05/26 00:10:08;;;;;;;8.05;5.00;;;;;;;;;;5046505;28;20036;-78
2023/05/26 00:12:33;;;;;;;10.77;5.10;;;;;;;;;;5046211;28;20061;-78
2023/05/26 00:14:58;;;;;;;12.75;4.70;;;;;;;;;;5049720;28;20040;-78
2023/05/26 00:17:24;;;;;;;8.85;4.55;;;;;;;;;;5045716;28;20041;-78
2023/05/26 00:19:51;;;;;;;9.73;5.70;;;;;;;;;;5049497;28;20041;-77
2023/05/26 00:22:17;;;;;;;10.80;5.15;;;;;;;;;;5046044;28;20045;-78
2023/05/26 00:24:43;;;;;;;8.88;6.18;;;;;;;;;;5050124;28;20059;-78
2023/05/26 00:27:08;;;;;;;10.10;5.43;;;;;;;;;;5049206;28;20131;-79
2023/05/26 00:29:33;;;;;;;7.15;4.80;;;;;;;;;;5046670;28;20079;-78
2023/05/26 00:31:59;;;;;;;9.60;5.15;;;;;;;;;;5047932;28;20089;-78
2023/05/26 00:34:25;;;;;;;9.73;5.18;;;;;;;;;;5046113;28;20022;-78
2023/05/26 00:36:50;;;;;;;11.18;5.60;;;;;;;;;;5049270;28;20473;-78
2023/05/26 00:39:16;;;;;;;11.27;5.50;;;;;;;;;;5047225;28;20041;-78
2023/05/26 00:41:41;;;;;;;9.40;4.45;;;;;;;;;;5047616;28;20072;-78
2023/05/26 00:44:06;;;;;;;8.95;5.00;;;;;;;;;;5047676;28;20036;-79
2023/05/26 00:46:32;;;;;;;13.05;5.18;;;;;;;;;;5048167;28;20394;-78
2023/05/26 00:48:58;;;;;;;10.35;5.10;;;;;;;;;;5049014;28;20028;-78
2023/05/26 00:51:23;;;;;;;9.70;5.35;;;;;;;;;;5053707;28;20031;-78
2023/05/26 00:53:49;;;;;;;11.80;5.00;;;;;;;;;;5064971;28;20491;-78
2023/05/26 00:56:15;;;;;;;9.93;5.63;;;;;;;;;;5048902;28;20075;-78
2023/05/26 00:58:41;;;;;;;11.20;6.93;;;;;;;;;;5046409;28;20032;-78
2023/05/26 01:01:07;;;;;;;11.45;7.10;;;;;;;;;;5062306;28;20037;-78
2023/05/26 01:03:32;;;;;;;10.50;5.85;;;;;;;;;;5047275;28;20033;-79
2023/05/26 01:05:58;;;;;;;8.73;5.10;;;;;;;;;;5050485;28;20032;-79
2023/05/26 01:08:23;;;;;;;8.68;5.47;;;;;;;;;;5050190;28;20040;-78
2023/05/26 01:10:50;;;;;;;9.13;5.13;;;;;;;;;;5046911;28;20116;-78
2023/05/26 01:13:18;;;;;;;8.57;5.00;;;;;;;;;;5047765;28;20028;-79
2023/05/26 01:15:51;;;;;;;10.10;5.65;;;;;;;;;;5061184;28;20033;-78
2023/05/26 01:18:21;;;;;;;9.52;5.55;;;;;;;;;;5061250;28;20084;-78
2023/05/26 01:21:07;;;;;;;13.10;5.60;;;;;;;;;;5046984;28;20035;-78
2023/05/26 01:23:36;;;;;;;8.00;5.28;;;;;;;;;;5045010;28;20026;-78
2023/05/26 01:26:03;;;;;;;8.25;5.13;;;;;;;;;;5049107;28;20029;-78
2023/05/26 01:28:29;;;;;;;10.32;4.78;;;;;;;;;;5049399;28;20083;-79
2023/05/26 01:30:55;;;;;;;12.30;5.10;;;;;;;;;;5048169;28;20033;-78
2023/05/26 01:33:20;;;;;;;10.13;4.50;;;;;;;;;;5060873;28;20040;-78
2023/05/26 01:35:46;;;;;;;8.57;4.75;;;;;;;;;;5046774;28;20056;-78
2023/05/26 01:38:11;;;;;;;7.68;4.72;;;;;;;;;;5049411;28;20068;-77
2023/05/26 01:40:40;;;;;;;7.97;5.20;;;;;;;;;;5045722;28;20075;-78
2023/05/26 01:43:13;;;;;;;9.68;5.75;;;;;;;;;;5046185;28;20495;-78
2023/05/26 01:45:40;;;;;;;9.35;4.70;;;;;;;;;;5079841;28;20044;-78
2023/05/26 01:48:08;;;;;;;10.07;5.30;;;;;;;;;;5067231;28;20037;-78
2023/05/26 01:50:47;;;;;;;8.55;5.57;;;;;;;;;;5059067;28;20536;-78
2023/05/26 01:53:14;;;;;;;9.50;6.30;;;;;;;;;;5061047;28;20048;-78
2023/05/26 01:55:41;;;;;;;9.90;6.03;;;;;;;;;;5045850;28;20029;-79
2023/05/26 01:58:06;;;;;;;10.10;5.97;;;;;;;;;;5031208;28;20034;-78
2023/05/26 02:00:35;;;;;;;8.55;5.60;;;;;;;;;;5062369;28;20566;-78
2023/05/26 02:03:00;;;;;;;10.57;6.60;;;;;;;;;;5048561;28;20029;-78
2023/05/26 02:05:26;;;;;;;16.80;6.25;;;;;;;;;;5064863;28;20376;-78
2023/05/26 02:07:52;;;;;;;17.42;7.15;;;;;;;;;;5043096;28;20033;-78
2023/05/26 02:10:17;;;;;;;8.18;5.57;;;;;;;;;;5049883;28;20025;-78
2023/05/26 02:12:42;;;;;;;10.93;6.03;;;;;;;;;;5043830;28;20719;-78
2023/05/26 02:15:07;;;;;;;9.60;5.57;;;;;;;;;;5046170;28;20128;-78
2023/05/26 02:17:33;;;;;;;10.27;5.45;;;;;;;;;;5043994;28;20021;-78
2023/05/26 02:19:58;;;;;;;8.45;5.07;;;;;;;;;;5045712;28;20486;-78
2023/05/26 02:22:23;;;;;;;9.00;4.55;;;;;;;;;;5044003;28;20025;-78
2023/05/26 02:24:49;;;;;;;10.27;5.30;;;;;;;;;;5045518;28;20522;-78
2023/05/26 02:27:15;;;;;;;13.15;5.88;;;;;;;;;;5045056;28;20144;-78
2023/05/26 02:29:40;;;;;;;9.50;5.45;;;;;;;;;;5080670;28;20029;-78
2023/05/26 02:32:06;;;;;;;12.55;5.57;;;;;;;;;;5048333;28;20029;-78
2023/05/26 02:34:31;;;;;;;10.77;5.60;;;;;;;;;;5045768;28;20029;-78
2023/05/26 02:36:56;;;;;;;10.65;6.40;;;;;;;;;;5045314;28;20039;-78
2023/05/26 02:39:22;;;;;;;11.55;6.40;;;;;;;;;;5041797;28;20051;-78
2023/05/26 02:41:47;;;;;;;11.52;6.75;;;;;;;;;;5062532;28;20055;-78
2023/05/26 02:44:13;;;;;;;13.02;6.97;;;;;;;;;;5058584;28;20551;-78
2023/05/26 02:46:39;;;;;;;11.57;7.20;;;;;;;;;;5046367;28;20150;-78
2023/05/26 02:49:04;;;;;;;11.20;6.40;;;;;;;;;;5046011;28;20184;-79
2023/05/26 02:51:29;;;;;;;11.45;6.63;;;;;;;;;;5043255;28;20033;-78
2023/05/26 02:53:54;;;;;;;11.63;7.13;;;;;;;;;;5044960;28;20028;-78
2023/05/26 02:56:21;;;;;;;13.40;6.88;;;;;;;;;;5052641;28;20101;-79
2023/05/26 02:58:46;;;;;;;11.10;6.53;;;;;;;;;;5048476;28;20037;-79
2023/05/26 03:01:12;;;;;;;9.27;6.55;;;;;;;;;;5056374;28;20124;-78
2023/05/26 03:03:38;;;;;;;12.07;7.03;;;;;;;;;;5047015;28;20029;-78
2023/05/26 03:06:04;;;;;;;11.60;6.38;;;;;;;;;;5048618;28;20093;-79
2023/05/26 03:08:30;;;;;;;11.27;6.88;;;;;;;;;;5049654;28;20021;-79
2023/05/26 03:10:56;;;;;;;11.23;7.00;;;;;;;;;;5049523;28;20025;-78
2023/05/26 03:13:22;;;;;;;10.20;6.82;;;;;;;;;;5048420;28;20060;-78
2023/05/26 03:15:48;;;;;;;10.60;6.75;;;;;;;;;;5046385;28;20026;-78
2023/05/26 03:18:16;;;;;;;12.77;6.00;;;;;;;;;;5047499;28;20026;-78
2023/05/26 03:20:42;;;;;;;10.32;6.57;;;;;;;;;;5048799;28;20043;-78
2023/05/26 03:23:07;;;;;;;11.98;7.30;;;;;;;;;;5045845;28;20546;-78
2023/05/26 03:25:33;;;;;;;12.48;6.90;;;;;;;;;;5047181;28;20486;-78
2023/05/26 03:28:00;;;;;;;13.07;6.85;;;;;;;;;;5047353;28;20036;-78
2023/05/26 03:30:26;;;;;;;10.65;6.97;;;;;;;;;;5043889;28;20025;-78
2023/05/26 03:32:51;;;;;;;12.07;7.35;;;;;;;;;;5047447;28;20078;-78
2023/05/26 03:35:17;;;;;;;11.93;7.57;;;;;;;;;;5049994;28;20064;-78
2023/05/26 03:37:44;;;;;;;12.75;7.05;;;;;;;;;;5045322;28;20079;-78
2023/05/26 03:40:09;;;;;;;12.55;7.75;;;;;;;;;;5044599;28;20124;-78
2023/05/26 03:42:35;;;;;;;11.93;8.32;;;;;;;;;;5051905;28;20051;-79
2023/05/26 03:45:02;;;;;;;11.10;7.15;;;;;;;;;;5048221;28;20039;-78
2023/05/26 03:47:28;;;;;;;12.75;6.90;;;;;;;;;;5049842;28;20029;-78
2023/05/26 03:49:53;;;;;;;10.10;6.47;;;;;;;;;;5045885;28;20380;-78
2023/05/26 03:52:19;;;;;;;11.35;7.30;;;;;;;;;;5049391;28;20742;-78
2023/05/26 03:54:44;;;;;;;11.77;7.53;;;;;;;;;;5050968;28;20041;-79
2023/05/26 03:57:09;;;;;;;12.23;6.68;;;;;;;;;;5048799;28;20029;-79
2023/05/26 03:59:34;;;;;;;12.02;7.03;;;;;;;;;;5132941;23;20087;-80
2023/05/26 04:02:00;;;;;;;12.45;8.40;;;;;;;;;;5026627;28;20048;-80
2023/05/26 04:04:25;;;;;;;16.13;8.63;;;;;;;;;;5017441;28;20163;-80
2023/05/26 04:06:50;;;;;;;13.00;7.88;;;;;;;;;;5033548;28;20641;-80
2023/05/26 04:09:16;;;;;;;14.80;9.13;;;;;;;;;;5024466;28;20061;-82
2023/05/26 04:11:41;;;;;;;11.75;7.47;;;;;;;;;;5028567;28;20113;-80
2023/05/26 04:14:06;;;;;;;12.52;7.07;;;;;;;;;;5027370;28;20029;-80
2023/05/26 04:16:32;;;;;;;11.77;7.13;;;;;;;;;;5010531;28;20017;-79
2023/05/26 04:18:58;;;;;;;11.02;7.07;;;;;;;;;;5026163;28;20452;-79
2023/05/26 04:21:26;;;;;;;10.65;6.43;;;;;;;;;;5031599;28;20033;-79
2023/05/26 04:23:52;;;;;;;11.80;6.53;;;;;;;;;;5032941;28;20084;-78
2023/05/26 04:26:18;;;;;;;11.05;7.40;;;;;;;;;;5015669;28;20026;-78
2023/05/26 04:28:52;;;;;;;10.20;6.47;;;;;;;;;;5022348;28;20488;-78
2023/05/26 04:31:40;;;;;;;11.82;7.15;;;;;;;;;;5030544;28;20087;-79
2023/05/26 04:34:11;;;;;;;12.02;7.20;;;;;;;;;;5035329;28;20104;-79
2023/05/26 04:36:54;;;;;;;13.52;7.03;;;;;;;;;;5035293;28;20076;-79
2023/05/26 04:39:19;;;;;;;15.55;6.72;;;;;;;;;;5034358;28;20702;-79
2023/05/26 04:41:46;;;;;;;12.30;6.55;;;;;;;;;;5034278;28;20043;-79
2023/05/26 04:44:12;;;;;;;10.60;6.80;;;;;;;;;;5032288;28;20029;-79
2023/05/26 04:46:38;;;;;;;12.32;7.05;;;;;;;;;;5017605;28;20042;-80
2023/05/26 04:49:04;;;;;;;12.90;7.85;;;;;;;;;;5034148;28;20488;-80
2023/05/26 04:51:32;;;;;;;13.50;6.65;;;;;;;;;;5023956;28;20030;-79
2023/05/26 04:53:57;;;;;;;16.10;7.43;;;;;;;;;;5027134;28;20033;-79
2023/05/26 04:56:23;;;;;;;13.60;5.82;;;;;;;;;;5030572;28;20067;-77
2023/05/26 04:58:52;;;;;;;15.25;6.45;;;;;;;;;;5032942;28;20033;-80
2023/05/26 05:01:17;;;;;;;15.50;6.25;;;;;;;;;;5034462;28;20113;-80
2023/05/26 05:04:01;;;;;;;16.08;6.38;;;;;;;;;;5026835;28;20095;-80
2023/05/26 05:06:28;;;;;;;14.10;5.70;;;;;;;;;;5028797;28;20703;-80
2023/05/26 05:08:54;;;;;;;15.27;5.50;;;;;;;;;;5032510;28;20053;-80
2023/05/26 05:11:19;;;;;;;16.17;5.75;;;;;;;;;;5023317;28;20033;-80
2023/05/26 05:13:45;;;;;;;20.88;7.13;;;;;;;;;;5026226;28;20021;-80
2023/05/26 05:16:12;;;;;;;17.88;5.72;;;;;;;;;;5026459;28;20021;-80
2023/05/26 05:18:37;;;;;;;13.77;5.95;;;;;;;;;;5022416;28;20104;-80
2023/05/26 05:21:03;;;;;;;13.52;5.72;;;;;;;;;;5029290;28;20033;-80
2023/05/26 05:23:34;;;;;;;14.95;5.60;;;;;;;;;;5023638;28;20026;-80
2023/05/26 05:26:00;;;;;;;18.95;6.10;;;;;;;;;;5008381;28;20488;-80
2023/05/26 05:28:26;;;;;;;16.73;5.90;;;;;;;;;;5012017;28;20510;-80
2023/05/26 05:31:01;;;;;;;17.63;6.28;;;;;;;;;;5033976;28;20032;-80
2023/05/26 05:33:28;;;;;;;18.08;5.47;;;;;;;;;;5022664;28;20025;-80
2023/05/26 05:35:53;;;;;;;14.23;5.82;;;;;;;;;;5025024;28;20037;-80
2023/05/26 05:38:18;;;;;;;17.13;5.80;;;;;;;;;;5023931;28;20088;-80
2023/05/26 05:40:43;;;;;;;16.27;5.07;;;;;;;;;;5026460;28;20029;-81
2023/05/26 05:43:09;;;;;;;17.75;5.80;;;;;;;;;;5021951;28;20022;-80
2023/05/26 05:45:35;;;;;;;15.85;5.20;;;;;;;;;;5031185;28;20034;-81
2023/05/26 05:48:06;;;;;;;22.63;5.82;;;;;;;;;;5026956;28;20116;-81
2023/05/26 05:50:37;;;;;;;14.57;4.68;;;;;;;;;;5027624;28;20116;-80
2023/05/26 05:53:03;;;;;;;18.58;5.20;;;;;;;;;;5027451;28;20646;-80
2023/05/26 05:55:29;;;;;;;20.17;4.75;;;;;;;;;;5027688;28;20024;-80
2023/05/26 05:57:54;;;;;;;17.98;4.72;;;;;;;;;;5007507;28;20030;-80
2023/05/26 06:00:20;;;;;;;17.08;4.78;;;;;;;;;;5026879;28;20517;-80
2023/05/26 06:02:46;;;;;;;16.90;4.50;;;;;;;;;;5029426;28;20037;-80
2023/05/26 06:05:12;;;;;;;17.27;5.15;;;;;;;;;;5025381;28;20030;-80
2023/05/26 06:07:37;;;;;;;16.38;4.15;;;;;;;;;;5025034;28;20130;-80
2023/05/26 06:10:03;;;;;;;19.17;5.03;;;;;;;;;;5022992;28;20049;-81
2023/05/26 06:12:28;;;;;;;14.85;4.90;;;;;;;;;;5026842;28;20037;-80
2023/05/26 06:14:53;;;;;;;15.32;4.47;;;;;;;;;;5029998;28;20025;-80
2023/05/26 06:17:19;;;;;;;18.23;4.97;;;;;;;;;;5031322;28;20029;-81
2023/05/26 06:19:46;;;;;;;17.92;5.05;;;;;;;;;;5027212;28;20533;-81
2023/05/26 06:22:11;;;;;;;17.50;5.03;;;;;;;;;;5027880;28;20156;-81
2023/05/26 06:24:36;;;;;;;15.48;5.45;;;;;;;;;;5025774;28;20037;-80
2023/05/26 06:27:03;;;;;;;20.35;5.35;;;;;;;;;;5031223;28;20057;-80
2023/05/26 06:29:29;;;;;;;15.60;4.95;;;;;;;;;;5029525;28;20381;-81
2023/05/26 06:31:54;;;;;;;14.15;4.15;;;;;;;;;;5037482;28;20112;-81
2023/05/26 06:34:19;;;;;;;13.05;4.97;;;;;;;;;;5026071;28;20034;-81
2023/05/26 06:36:45;;;;;;;15.18;5.45;;;;;;;;;;5029320;28;20025;-81
2023/05/26 06:39:10;;;;;;;14.30;4.72;;;;;;;;;;5027973;28;20540;-81
2023/05/26 06:41:35;;;;;;;16.30;4.32;;;;;;;;;;5011011;28;20030;-81
2023/05/26 06:44:01;;;;;;;13.85;5.40;;;;;;;;;;5021486;28;20036;-81
2023/05/26 06:46:28;;;;;;;19.15;4.57;;;;;;;;;;5028253;28;20028;-81
2023/05/26 06:48:54;;;;;;;18.38;5.22;;;;;;;;;;5020746;28;20033;-81
2023/05/26 06:51:32;;;;;;;17.95;5.03;;;;;;;;;;5030126;28;20025;-81
2023/05/26 06:53:59;;;;;;;17.25;4.63;;;;;;;;;;5034329;28;20102;-81
2023/05/26 06:56:26;;;;;;;16.25;4.00;;;;;;;;;;5013674;28;20029;-81
2023/05/26 06:58:52;;;;;;;17.02;4.57;;;;;;;;;;5035731;28;20053;-81
2023/05/26 07:01:19;;;;;;;16.55;4.47;;;;;;;;;;5011193;28;20533;-81
2023/05/26 07:03:44;;;;;;;17.88;4.72;;;;;;;;;;5035587;28;20033;-81
2023/05/26 07:06:11;;;;;;;17.60;5.13;;;;;;;;;;5030473;28;20056;-81
2023/05/26 07:08:38;;;;;;;17.60;4.97;;;;;;;;;;5031350;28;20029;-81
2023/05/26 07:11:15;;;;;;;16.42;4.78;;;;;;;;;;5028925;28;20096;-81
2023/05/26 07:13:41;;;;;;;15.85;4.05;;;;;;;;;;5012069;28;20104;-81
2023/05/26 07:16:07;;;;;;;15.90;4.05;;;;;;;;;;5016643;28;20032;-81
2023/05/26 07:18:32;;;;;;;16.60;4.70;;;;;;;;;;5029112;28;20030;-81
2023/05/26 07:20:58;;;;;;;23.75;4.47;;;;;;;;;;5027286;28;20045;-81
2023/05/26 07:23:24;;;;;;;14.43;4.38;;;;;;;;;;5027132;28;20097;-81
2023/05/26 07:25:51;;;;;;;13.48;3.45;;;;;;;;;;5012036;28;20033;-81
2023/05/26 07:28:16;;;;;;;17.02;5.00;;;;;;;;;;5028869;28;20032;-81
2023/05/26 07:30:41;;;;;;;16.30;4.18;;;;;;;;;;5032883;28;20302;-81
2023/05/26 07:33:10;;;;;;;17.17;4.22;;;;;;;;;;5030091;28;20033;-81
2023/05/26 07:35:36;;;;;;;17.77;4.05;;;;;;;;;;5010102;28;20669;-81
2023/05/26 07:38:03;;;;;;;14.57;4.20;;;;;;;;;;5016662;28;20022;-82
2023/05/26 07:40:29;;;;;;;12.95;3.60;;;;;;;;;;5030147;28;20171;-82
2023/05/26 07:42:55;;;;;;;12.07;4.10;;;;;;;;;;5035278;28;20025;-82
2023/05/26 07:45:20;;;;;;;15.35;4.47;;;;;;;;;;5032444;28;20052;-82
2023/05/26 07:47:45;;;;;;;10.02;3.40;;;;;;;;;;5031219;28;20032;-82
2023/05/26 07:50:12;;;;;;;13.65;3.38;;;;;;;;;;5026374;28;20084;-81
2023/05/26 07:52:37;;;;;;;14.02;4.20;;;;;;;;;;5020231;28;20087;-81
2023/05/26 07:55:03;;;;;;;15.73;3.45;;;;;;;;;;5025733;28;20090;-82
2023/05/26 07:57:28;;;;;;;12.52;3.42;;;;;;;;;;5032612;28;20099;-82
2023/05/26 07:59:53;;;;;;;13.65;4.22;;;;;;;;;;5025753;28;20033;-82
2023/05/26 08:02:19;;;;;;;14.13;3.58;;;;;;;;;;5029975;28;20030;-82
2023/05/26 08:04:44;;;;;;;13.68;3.45;;;;;;;;;;5025318;28;20030;-82
2023/05/26 08:07:09;;;;;;;13.55;3.90;;;;;;;;;;5027504;28;20041;-81
2023/05/26 08:09:34;;;;;;;15.57;4.40;;;;;;;;;;5027866;28;20026;-82
2023/05/26 08:12:00;;;;;;;13.05;4.28;;;;;;;;;;5024120;28;20081;-81
2023/05/26 08:14:26;;;;;;;13.07;3.70;;;;;;;;;;5029292;28;20026;-82
2023/05/26 08:16:51;;;;;;;13.10;3.65;;;;;;;;;;5026261;28;20030;-82
2023/05/26 08:19:16;;;;;;;11.30;3.20;;;;;;;;;;5027141;28;20037;-82
2023/05/26 08:21:41;;;;;;;11.75;3.42;;;;;;;;;;5028784;28;20040;-81
2023/05/26 08:24:07;;;;;;;11.10;3.63;;;;;;;;;;5025617;28;20034;-82
2023/05/26 08:26:32;;;;;;;13.20;3.50;;;;;;;;;;5029443;28;20033;-81
2023/05/26 08:28:57;;;;;;;12.25;3.20;;;;;;;;;;5024327;28;20396;-82
2023/05/26 08:31:22;;;;;;;12.82;3.13;;;;;;;;;;5028692;28;20034;-82
2023/05/26 08:33:48;;;;;;;12.57;3.55;;;;;;;;;;5029674;28;20021;-82
2023/05/26 08:36:13;;;;;;;11.27;3.10;;;;;;;;;;5030157;28;20036;-82
2023/05/26 08:38:38;;;;;;;10.05;3.00;;;;;;;;;;5024846;28;20025;-81
2023/05/26 08:41:04;;;;;;;8.48;2.42;;;;;;;;;;5027270;28;20545;-82
2023/05/26 08:43:37;;;;;;;13.38;3.00;;;;;;;;;;5026834;28;20034;-81
2023/05/26 08:46:05;;;;;;;12.45;3.42;;;;;;;;;;5030113;28;20113;-81
2023/05/26 08:48:31;;;;;;;10.48;2.90;;;;;;;;;;5027021;28;20033;-82
2023/05/26 08:50:56;;;;;;;13.07;3.25;;;;;;;;;;5030822;28;20052;-82
2023/05/26 08:53:23;;;;;;;11.27;3.20;;;;;;;;;;5031727;28;20100;-82
2023/05/26 08:55:49;;;;;;;9.07;2.70;;;;;;;;;;5018091;28;20502;-82
2023/05/26 08:58:14;;;;;;;12.52;3.38;;;;;;;;;;5028673;28;20025;-82
2023/05/26 09:00:41;;;;;;;10.45;2.88;;;;;;;;;;5028066;28;20104;-81
2023/05/26 09:03:07;;;;;;;10.48;2.42;;;;;;;;;;5030394;28;20250;-81
2023/05/26 09:05:32;;;;;;;10.70;2.90;;;;;;;;;;5027168;28;20038;-81
2023/05/26 09:07:57;;;;;;;9.57;2.95;;;;;;;;;;5028562;28;20303;-82
2023/05/26 09:10:22;;;;;;;9.30;2.50;;;;;;;;;;5026161;28;20084;-82
2023/05/26 09:12:48;;;;;;;7.47;2.53;;;;;;;;;;5033189;28;20277;-81
2023/05/26 09:15:19;;;;;;;8.88;3.25;;;;;;;;;;5031785;28;20363;-81
2023/05/26 09:17:45;;;;;;;10.18;2.60;;;;;;;;;;5023498;28;20038;-82
2023/05/26 09:20:10;;;;;;;10.57;2.97;;;;;;;;;;5026306;28;20033;-81
2023/05/26 09:22:37;;;;;;;12.32;2.78;;;;;;;;;;5023413;28;20034;-81
2023/05/26 09:25:02;;;;;;;12.50;3.30;;;;;;;;;;5027983;28;20143;-81
2023/05/26 09:27:28;;;;;;;8.57;2.33;;;;;;;;;;5008080;28;20100;-81
2023/05/26 09:29:58;;;;;;;9.20;2.65;;;;;;;;;;5025345;28;20459;-82
2023/05/26 09:32:29;;;;;;;8.05;2.53;;;;;;;;;;5026003;28;20044;-81
2023/05/26 09:34:56;;;;;;;10.95;2.75;;;;;;;;;;5029580;28;20025;-81
2023/05/26 09:37:28;;;;;;;10.82;2.80;;;;;;;;;;5031933;28;20488;-81
2023/05/26 09:39:53;;;;;;;9.15;2.78;;;;;;;;;;5023858;28;20073;-82
2023/05/26 09:42:18;;;;;;;11.05;3.88;;;;;;;;;;5033927;28;20111;-82
2023/05/26 09:44:47;;;;;;;10.40;3.08;;;;;;;;;;5023316;28;20037;-81
2023/05/26 09:47:18;;;;;;;11.80;2.83;;;;;;;;;;5029347;28;20044;-82
2023/05/26 09:49:43;;;;;;;12.40;3.33;;;;;;;;;;5025032;28;20109;-82
2023/05/26 09:52:09;;;;;;;11.52;3.40;;;;;;;;;;5025822;28;20097;-82
2023/05/26 09:54:34;;;;;;;10.93;2.65;;;;;;;;;;5024344;28;20030;-82
2023/05/26 09:57:00;;;;;;;12.57;3.17;;;;;;;;;;5026282;28;20626;-79
2023/05/26 09:59:31;;;;;;;14.13;3.10;;;;;;;;;;5025006;28;20045;-79
2023/05/26 10:01:56;;;;;;;9.20;2.47;;;;;;;;;;5036251;28;20034;-79
2023/05/26 10:04:22;;;;;;;12.30;3.40;;;;;;;;;;5046341;23;20476;-76
2023/05/26 10:06:48;;;;;;;11.13;2.78;;;;;;;;;;5023581;28;20033;-76
2023/05/26 10:09:14;;;;;;;11.07;2.88;;;;;;;;;;5023108;28;20040;-76
2023/05/26 10:11:41;;;;;;;8.40;3.17;;;;;;;;;;5027965;28;20117;-76
2023/05/26 10:14:06;;;;;;;10.05;2.58;;;;;;;;;;5023537;28;20029;-76
2023/05/26 10:16:31;;;;;;;9.40;2.15;;;;;;;;;;5023453;28;20113;-76
2023/05/26 10:18:57;;;;;;;11.88;3.20;;;;;;;;;;5021892;28;20118;-76
2023/05/26 10:21:24;;;;;;;8.77;2.05;;;;;;;;;;5023140;28;20045;-77
2023/05/26 10:24:10;;;;;;;8.98;2.50;;;;;;;;;;5029931;28;20036;-76
2023/05/26 10:26:44;;;;;;;10.45;3.28;;;;;;;;;;5020792;28;20087;-76
2023/05/26 10:29:14;;;;;;;9.90;3.60;;;;;;;;;;5029580;28;20036;-76
2023/05/26 10:31:40;;;;;;;8.48;2.92;;;;;;;;;;5030551;28;20028;-76
2023/05/26 10:34:12;;;;;;;9.65;2.22;;;;;;;;;;5030186;28;20029;-76
2023/05/26 10:36:37;;;;;;;;;;;;;;;;;;5020706;28;20026;-76
2023/05/26 10:39:08;;;;;;;10.48;2.45;;;;;;;;;;5022602;28;20402;-76
2023/05/26 10:41:49;;;;;;;10.20;2.70;;;;;;;;;;5021712;28;20022;-77
2023/05/26 10:44:33;;;;;;;13.88;3.28;;;;;;;;;;5022830;28;20780;-77
2023/05/26 10:47:02;;;;;;;10.48;2.90;;;;;;;;;;5022304;28;20488;-77
2023/05/26 10:49:33;;;;;;;7.93;3.10;;;;;;;;;;5025680;28;20041;-77
2023/05/26 10:51:58;;;;;;;8.45;2.70;;;;;;;;;;5020402;28;20579;-77
2023/05/26 10:54:24;;;;;;;10.88;3.63;;;;;;;;;;5022218;28;20112;-77
2023/05/26 10:56:51;;;;;;;12.93;2.58;;;;;;;;;;5023058;28;20495;-77
2023/05/26 10:59:30;;;;;;;11.93;3.30;;;;;;;;;;5027335;28;20045;-78
2023/05/26 11:02:00;;;;;;;7.22;2.42;;;;;;;;;;5021673;28;20033;-76
2023/05/26 11:04:38;;;;;;;12.57;3.13;;;;;;;;;;5022655;28;20515;-76
2023/05/26 11:07:03;;;;;;;10.27;3.20;;;;;;;;;;5022736;28;20109;-75
2023/05/26 11:09:29;;;;;;;10.32;3.20;;;;;;;;;;5023045;28;20128;-75
2023/05/26 11:11:59;;;;;;;13.52;2.78;;;;;;;;;;5022177;28;20113;-75
2023/05/26 11:14:33;;;;;;;8.02;2.55;;;;;;;;;;5024104;28;20032;-75
2023/05/26 11:16:59;;;;;;;10.20;3.13;;;;;;;;;;5024497;28;20104;-75
2023/05/26 11:19:28;;;;;;;8.68;3.05;;;;;;;;;;5025908;28;20038;-75
2023/05/26 11:21:53;;;;;;;8.00;2.72;;;;;;;;;;5025409;28;20436;-75
2023/05/26 11:24:18;;;;;;;9.05;3.10;;;;;;;;;;5029127;28;20061;-75
2023/05/26 11:26:44;;;;;;;6.60;2.63;;;;;;;;;;5024471;28;20037;-76
2023/05/26 11:29:09;;;;;;;8.10;2.70;;;;;;;;;;5021908;28;20037;-75
2023/05/26 11:31:36;;;;;;;9.43;2.70;;;;;;;;;;5026010;28;20031;-75
2023/05/26 11:34:02;;;;;;;14.55;3.65;;;;;;;;;;5024082;28;20480;-75
2023/05/26 11:36:27;;;;;;;15.45;6.40;;;;;;;;;;5025799;28;20120;-75
2023/05/26 11:38:56;;;;;;;10.38;3.25;;;;;;;;;;5023336;28;20032;-76
2023/05/26 11:41:25;;;;;;;10.73;3.45;;;;;;;;;;5024416;28;20094;-76
2023/05/26 11:43:53;;;;;;;9.43;2.50;;;;;;;;;;5025720;28;20400;-76
2023/05/26 11:46:18;;;;;;;11.70;3.08;;;;;;;;;;5020791;28;20033;-76
2023/05/26 11:48:43;;;;;;;7.75;2.38;;;;;;;;;;5025278;28;20029;-76
2023/05/26 11:51:10;;;;;;;10.63;3.25;;;;;;;;;;5024692;28;20021;-76
2023/05/26 11:53:35;;;;;;;8.18;3.17;;;;;;;;;;5022699;28;20073;-76
2023/05/26 11:56:01;;;;;;;12.73;2.97;;;;;;;;;;5024117;28;20103;-76
2023/05/26 11:58:27;;;;;;;13.82;3.03;;;;;;;;;;5021544;28;20037;-75
2023/05/26 12:00:56;;;;;;;9.48;3.20;;;;;;;;;;5021852;28;20439;-76
2023/05/26 12:03:21;;;;;;;8.55;3.47;;;;;;;;;;5028961;28;20472;-76
2023/05/26 12:05:46;;;;;;;11.40;3.42;;;;;;;;;;5024253;28;20099;-76
2023/05/26 12:08:11;;;;;;;11.73;2.43;;;;;;;;;;5022560;28;20566;-76
2023/05/26 12:10:40;;;;;;;11.47;3.33;;;;;;;;;;5023895;28;20334;-76
2023/05/26 12:13:05;;;;;;;9.77;3.03;;;;;;;;;;5022957;28;20277;-76
2023/05/26 12:15:30;;;;;;;10.65;3.33;;;;;;;;;;5025258;28;20467;-76
2023/05/26 12:17:57;;;;;;;7.03;2.80;;;;;;;;;;5023987;28;20030;-76
2023/05/26 12:20:23;;;;;;;7.20;2.65;;;;;;;;;;5022829;28;20309;-76
2023/05/26 12:22:49;;;;;;;7.40;3.28;;;;;;;;;;5022783;28;20495;-76
2023/05/26 12:25:20;;;;;;;9.30;2.95;;;;;;;;;;5027304;28;20063;-76
2023/05/26 12:27:47;;;;;;;7.65;2.30;;;;;;;;;;5024362;28;20022;-76
2023/05/26 12:30:20;;;;;;;7.60;2.35;;;;;;;;;;5026376;28;20105;-76
2023/05/26 12:32:45;;;;;;;5.97;2.40;;;;;;;;;;5026325;28;20082;-76
2023/05/26 12:35:11;;;;;;;11.32;3.22;;;;;;;;;;5023628;28;20026;-76
2023/05/26 12:37:37;;;;;;;8.77;2.92;;;;;;;;;;5029131;28;20033;-76
2023/05/26 12:40:02;;;;;;;9.40;2.75;;;;;;;;;;5024761;28;20372;-76
2023/05/26 12:42:28;;;;;;;6.90;2.72;;;;;;;;;;5028205;28;20398;-76
2023/05/26 12:44:53;;;;;;;9.50;2.95;;;;;;;;;;5028096;28;20029;-76
2023/05/26 12:47:18;;;;;;;7.97;3.00;;;;;;;;;;5024670;28;20025;-76
2023/05/26 12:49:43;;;;;;;8.00;2.87;;;;;;;;;;5021486;28;20374;-76
2023/05/26 12:52:08;;;;;;;7.53;2.90;;;;;;;;;;5024225;28;20406;-76
2023/05/26 12:54:34;;;;;;;8.95;2.90;;;;;;;;;;5023292;28;20295;-76
2023/05/26 12:57:04;;;;;;;8.73;2.50;;;;;;;;;;5022907;28;20026;-76
2023/05/26 12:59:29;;;;;;;8.43;2.97;;;;;;;;;;5024227;28;20033;-76
2023/05/26 13:01:55;;;;;;;8.27;2.65;;;;;;;;;;5022277;28;20050;-76
2023/05/26 13:04:20;;;;;;;7.40;2.77;;;;;;;;;;5022906;28;20048;-76
2023/05/26 13:06:48;;;;;;;7.63;2.80;;;;;;;;;;5030386;28;20291;-76
2023/05/26 13:09:14;;;;;;;9.70;3.25;;;;;;;;;;5021455;28;20283;-76
2023/05/26 13:11:39;;;;;;;9.85;2.75;;;;;;;;;;5026311;28;20087;-76
2023/05/26 13:14:05;;;;;;;7.65;3.42;;;;;;;;;;5026683;28;20041;-76
2023/05/26 13:16:30;;;;;;;9.05;3.08;;;;;;;;;;5024019;28;20037;-76
2023/05/26 13:18:56;;;;;;;12.43;3.38;;;;;;;;;;5027143;28;20073;-77
2023/05/26 13:21:21;;;;;;;8.73;3.72;;;;;;;;;;5022136;28;20033;-76
2023/05/26 13:23:46;;;;;;;5.50;2.87;;;;;;;;;;5021799;28;20033;-76
2023/05/26 13:26:11;;;;;;;5.43;2.90;;;;;;;;;;5022491;28;20327;-77
2023/05/26 13:28:37;;;;;;;9.30;3.03;;;;;;;;;;5026302;28;20391;-76
2023/05/26 13:31:02;;;;;;;9.27;3.20;;;;;;;;;;5027398;28;20037;-77
2023/05/26 13:33:27;;;;;;;9.43;3.28;;;;;;;;;;5020366;28;20118;-77
2023/05/26 13:35:52;;;;;;;8.90;3.43;;;;;;;;;;5023491;28;20026;-76
2023/05/26 13:38:18;;;;;;;8.97;4.53;;;;;;;;;;5023441;28;20774;-76
2023/05/26 13:40:43;;;;;;;7.70;3.05;;;;;;;;;;5025397;28;20033;-77
2023/05/26 13:43:08;;;;;;;9.80;3.28;;;;;;;;;;5020083;28;20597;-76
2023/05/26 13:45:33;;;;;;;9.13;2.80;;;;;;;;;;5024677;28;20026;-76
2023/05/26 13:47:59;;;;;;;9.00;3.17;;;;;;;;;;5019893;28;20319;-76
2023/05/26 13:50:24;;;;;;;12.60;3.60;;;;;;;;;;5023292;28;20375;-76
2023/05/26 13:52:49;;;;;;;7.40;3.58;;;;;;;;;;5023619;28;20388;-76
2023/05/26 13:55:15;;;;;;;9.50;4.53;;;;;;;;;;5019721;28;20033;-77
2023/05/26 13:57:40;;;;;;;7.43;3.27;;;;;;;;;;5021797;28;20887;-76
2023/05/26 14:00:05;;;;;;;6.90;2.33;;;;;;;;;;5023251;28;20316;-77
2023/05/26 14:02:37;;;;;;;9.18;3.10;;;;;;;;;;5024529;28;20030;-76
2023/05/26 14:05:03;;;;;;;7.50;3.28;;;;;;;;;;5022790;28;20121;-77
2023/05/26 14:07:28;;;;;;;6.60;2.92;;;;;;;;;;5020847;28;20483;-76
2023/05/26 14:09:53;;;;;;;8.95;3.13;;;;;;;;;;5021916;28;20040;-77
2023/05/26 14:12:18;;;;;;;7.80;3.20;;;;;;;;;;5021250;28;20034;-77
2023/05/26 14:14:44;;;;;;;8.50;3.30;;;;;;;;;;5022121;28;20034;-77
2023/05/26 14:17:09;;;;;;;8.15;3.08;;;;;;;;;;5021783;28;20276;-77
2023/05/26 14:19:35;;;;;;;6.10;2.92;;;;;;;;;;5020939;28;20038;-77
2023/05/26 14:22:01;;;;;;;6.13;2.92;;;;;;;;;;5021885;28;20042;-76
2023/05/26 14:24:27;;;;;;;6.35;3.05;;;;;;;;;;5021395;28;20034;-76
2023/05/26 14:26:53;;;;;;;8.52;2.80;;;;;;;;;;5022225;28;20398;-76
2023/05/26 14:29:18;;;;;;;6.70;3.40;;;;;;;;;;5024267;28;20038;-77
2023/05/26 14:31:44;;;;;;;7.07;2.90;;;;;;;;;;5027678;28;20022;-77